sensor_id;sensor_type;location;lat;lon;timestamp;temperature;humidity
31819;DHT22;18384;48.860;9.188;2023-06-04T00:00:19;18.40;74.00
31819;DHT22;18384;48.860;9.188;2023-06-04T00:02:45;18.40;74.10
31819;DHT22;18384;48.860;9.188;2023-06-04T00:05:11;18.30;74.20
31819;DHT22;18384;48.860;9.188;2023-06-04T00:07:37;18.30;74.00
31819;DHT22;18384;48.860;9.188;2023-06-04T00:10:04;18.30;74.00
31819;DHT22;18384;48.860;9.188;2023-06-04T00:12:30;18.20;73.80
31819;DHT22;18384;48.860;9.188;2023-06-04T00:14:57;18.20;73.50
31819;DHT22;18384;48.860;9.188;2023-06-04T00:17:23;18.20;73.60
31819;DHT22;18384;48.860;9.188;2023-06-04T00:19:49;18.10;73.50
31819;DHT22;18384;48.860;9.188;2023-06-04T00:22:15;18.10;73.50
31819;DHT22;18384;48.860;9.188;2023-06-04T00:24:41;18.10;73.40
31819;DHT22;18384;48.860;9.188;2023-06-04T00:27:09;18.10;74.00
31819;DHT22;18384;48.860;9.188;2023-06-04T00:29:35;18.10;73.60
31819;DHT22;18384;48.860;9.188;2023-06-04T00:32:02;18.10;73.60
31819;DHT22;18384;48.860;9.188;2023-06-04T00:34:28;18.10;73.70
31819;DHT22;18384;48.860;9.188;2023-06-04T00:36:55;18.00;73.60
31819;DHT22;18384;48.860;9.188;2023-06-04T00:39:21;18.00;73.60
31819;DHT22;18384;48.860;9.188;2023-06-04T00:41:47;18.00;73.50
31819;DHT22;18384;48.860;9.188;2023-06-04T00:44:13;17.90;72.90
31819;DHT22;18384;48.860;9.188;2023-06-04T00:46:39;17.90;72.80
31819;DHT22;18384;48.860;9.188;2023-06-04T00:49:06;17.90;72.90
31819;DHT22;18384;48.860;9.188;2023-06-04T00:51:32;17.80;72.50
31819;DHT22;18384;48.860;9.188;2023-06-04T00:53:59;17.80;72.60
31819;DHT22;18384;48.860;9.188;2023-06-04T00:56:27;17.80;73.00
31819;DHT22;18384;48.860;9.188;2023-06-04T00:58:53;17.80;73.30
31819;DHT22;18384;48.860;9.188;2023-06-04T01:02:16;17.70;73.10
31819;DHT22;18384;48.860;9.188;2023-06-04T01:05:19;17.70;73.30
31819;DHT22;18384;48.860;9.188;2023-06-04T01:07:55;17.70;74.00
31819;DHT22;18384;48.860;9.188;2023-06-04T01:10:23;17.70;72.40
31819;DHT22;18384;48.860;9.188;2023-06-04T01:12:49;17.70;72.50
31819;DHT22;18384;48.860;9.188;2023-06-04T01:15:15;17.60;72.60
31819;DHT22;18384;48.860;9.188;2023-06-04T01:17:46;17.60;72.10
31819;DHT22;18384;48.860;9.188;2023-06-04T01:20:34;18.10;72.30
31819;DHT22;18384;48.860;9.188;2023-06-04T01:23:28;17.50;72.70
31819;DHT22;18384;48.860;9.188;2023-06-04T01:26:04;17.50;72.10
31819;DHT22;18384;48.860;9.188;2023-06-04T01:28:33;17.50;72.80
31819;DHT22;18384;48.860;9.188;2023-06-04T01:31:00;17.40;72.90
31819;DHT22;18384;48.860;9.188;2023-06-04T01:33:28;17.50;72.80
31819;DHT22;18384;48.860;9.188;2023-06-04T01:35:54;17.40;72.30
31819;DHT22;18384;48.860;9.188;2023-06-04T01:38:20;17.40;72.00
31819;DHT22;18384;48.860;9.188;2023-06-04T01:40:46;17.40;71.70
31819;DHT22;18384;48.860;9.188;2023-06-04T01:43:12;17.30;71.60
31819;DHT22;18384;48.860;9.188;2023-06-04T01:45:38;17.30;71.70
31819;DHT22;18384;48.860;9.188;2023-06-04T01:48:05;17.20;71.40
31819;DHT22;18384;48.860;9.188;2023-06-04T01:50:31;17.30;72.00
31819;DHT22;18384;48.860;9.188;2023-06-04T01:52:58;17.20;71.80
31819;DHT22;18384;48.860;9.188;2023-06-04T01:55:25;17.20;71.50
31819;DHT22;18384;48.860;9.188;2023-06-04T01:57:53;17.20;71.30
31819;DHT22;18384;48.860;9.188;2023-06-04T02:00:19;17.10;71.20
31819;DHT22;18384;48.860;9.188;2023-06-04T02:02:46;17.10;70.70
31819;DHT22;18384;48.860;9.188;2023-06-04T02:05:14;17.10;71.10
31819;DHT22;18384;48.860;9.188;2023-06-04T02:07:42;17.10;70.80
31819;DHT22;18384;48.860;9.188;2023-06-04T02:10:12;17.10;70.60
31819;DHT22;18384;48.860;9.188;2023-06-04T02:12:40;17.00;70.30
31819;DHT22;18384;48.860;9.188;2023-06-04T02:15:17;17.00;70.60
31819;DHT22;18384;48.860;9.188;2023-06-04T02:17:44;17.00;70.30
31819;DHT22;18384;48.860;9.188;2023-06-04T02:20:11;16.90;70.10
31819;DHT22;18384;48.860;9.188;2023-06-04T02:22:37;16.90;70.00
31819;DHT22;18384;48.860;9.188;2023-06-04T02:25:04;16.90;69.90
31819;DHT22;18384;48.860;9.188;2023-06-04T02:27:31;16.90;69.90
31819;DHT22;18384;48.860;9.188;2023-06-04T02:29:57;16.90;70.10
31819;DHT22;18384;48.860;9.188;2023-06-04T02:32:23;16.90;69.60
31819;DHT22;18384;48.860;9.188;2023-06-04T02:34:49;16.90;69.60
31819;DHT22;18384;48.860;9.188;2023-06-04T02:37:15;16.90;69.40
31819;DHT22;18384;48.860;9.188;2023-06-04T02:39:41;16.90;69.90
31819;DHT22;18384;48.860;9.188;2023-06-04T02:42:08;16.90;69.60
31819;DHT22;18384;48.860;9.188;2023-06-04T02:44:34;16.90;69.90
31819;DHT22;18384;48.860;9.188;2023-06-04T02:47:00;16.90;71.20
31819;DHT22;18384;48.860;9.188;2023-06-04T02:49:26;16.90;71.70
31819;DHT22;18384;48.860;9.188;2023-06-04T02:51:52;16.80;70.30
31819;DHT22;18384;48.860;9.188;2023-06-04T02:54:18;16.80;70.60
31819;DHT22;18384;48.860;9.188;2023-06-04T02:56:44;16.80;70.80
31819;DHT22;18384;48.860;9.188;2023-06-04T02:59:11;16.80;71.50
31819;DHT22;18384;48.860;9.188;2023-06-04T03:01:37;16.80;71.50
31819;DHT22;18384;48.860;9.188;2023-06-04T03:04:03;16.80;71.70
31819;DHT22;18384;48.860;9.188;2023-06-04T03:06:30;16.70;72.00
31819;DHT22;18384;48.860;9.188;2023-06-04T03:09:00;16.70;72.20
31819;DHT22;18384;48.860;9.188;2023-06-04T03:11:27;16.70;73.00
31819;DHT22;18384;48.860;9.188;2023-06-04T03:13:53;16.70;72.10
31819;DHT22;18384;48.860;9.188;2023-06-04T03:16:19;16.70;72.30
31819;DHT22;18384;48.860;9.188;2023-06-04T03:18:46;17.10;72.60
31819;DHT22;18384;48.860;9.188;2023-06-04T03:21:12;16.70;72.80
31819;DHT22;18384;48.860;9.188;2023-06-04T03:23:39;16.60;72.30
31819;DHT22;18384;48.860;9.188;2023-06-04T03:26:06;16.60;72.60
31819;DHT22;18384;48.860;9.188;2023-06-04T03:28:33;16.60;72.30
31819;DHT22;18384;48.860;9.188;2023-06-04T03:30:59;16.60;72.40
31819;DHT22;18384;48.860;9.188;2023-06-04T03:33:25;16.50;72.30
31819;DHT22;18384;48.860;9.188;2023-06-04T03:35:52;16.40;72.00
31819;DHT22;18384;48.860;9.188;2023-06-04T03:38:18;16.40;72.10
31819;DHT22;18384;48.860;9.188;2023-06-04T03:40:45;16.40;72.10
31819;DHT22;18384;48.860;9.188;2023-06-04T03:43:12;16.40;72.10
31819;DHT22;18384;48.860;9.188;2023-06-04T03:45:38;16.40;72.20
31819;DHT22;18384;48.860;9.188;2023-06-04T03:48:04;16.40;72.00
31819;DHT22;18384;48.860;9.188;2023-06-04T03:50:30;16.40;72.20
31819;DHT22;18384;48.860;9.188;2023-06-04T03:52:56;16.50;71.90
31819;DHT22;18384;48.860;9.188;2023-06-04T03:55:22;16.40;71.80
31819;DHT22;18384;48.860;9.188;2023-06-04T03:57:49;16.50;72.20
31819;DHT22;18384;48.860;9.188;2023-06-04T04:00:16;16.50;72.00
31819;DHT22;18384;48.860;9.188;2023-06-04T04:02:42;16.50;72.00
31819;DHT22;18384;48.860;9.188;2023-06-04T04:05:08;16.50;72.10
31819;DHT22;18384;48.860;9.188;2023-06-04T04:07:36;16.50;72.10
31819;DHT22;18384;48.860;9.188;2023-06-04T04:10:03;16.50;71.80
31819;DHT22;18384;48.860;9.188;2023-06-04T04:12:31;16.50;71.90
31819;DHT22;18384;48.860;9.188;2023-06-04T04:14:57;16.50;72.80
31819;DHT22;18384;48.860;9.188;2023-06-04T04:17:24;16.50;72.20
31819;DHT22;18384;48.860;9.188;2023-06-04T04:19:50;16.60;72.00
31819;DHT22;18384;48.860;9.188;2023-06-04T04:22:16;16.60;72.20
31819;DHT22;18384;48.860;9.188;2023-06-04T04:24:43;16.50;71.70
31819;DHT22;18384;48.860;9.188;2023-06-04T04:27:10;16.60;71.90
31819;DHT22;18384;48.860;9.188;2023-06-04T04:29:41;16.70;71.60
31819;DHT22;18384;48.860;9.188;2023-06-04T04:32:08;16.90;71.30
31819;DHT22;18384;48.860;9.188;2023-06-04T04:34:50;16.90;71.00
31819;DHT22;18384;48.860;9.188;2023-06-04T04:37:17;17.00;71.20
31819;DHT22;18384;48.860;9.188;2023-06-04T04:39:46;17.10;70.30
31819;DHT22;18384;48.860;9.188;2023-06-04T04:42:12;17.20;69.90
31819;DHT22;18384;48.860;9.188;2023-06-04T04:44:38;17.30;69.50
31819;DHT22;18384;48.860;9.188;2023-06-04T04:47:05;17.40;69.20
31819;DHT22;18384;48.860;9.188;2023-06-04T04:49:31;17.50;69.40
31819;DHT22;18384;48.860;9.188;2023-06-04T04:51:57;17.70;69.40
31819;DHT22;18384;48.860;9.188;2023-06-04T04:54:23;17.90;68.60
31819;DHT22;18384;48.860;9.188;2023-06-04T04:56:49;18.10;67.60
31819;DHT22;18384;48.860;9.188;2023-06-04T04:59:15;18.10;67.10
31819;DHT22;18384;48.860;9.188;2023-06-04T05:01:41;18.10;67.10
31819;DHT22;18384;48.860;9.188;2023-06-04T05:04:07;18.10;68.30
31819;DHT22;18384;48.860;9.188;2023-06-04T05:06:33;18.10;66.60
31819;DHT22;18384;48.860;9.188;2023-06-04T05:09:00;18.10;66.70
31819;DHT22;18384;48.860;9.188;2023-06-04T05:11:26;18.00;67.30
31819;DHT22;18384;48.860;9.188;2023-06-04T05:13:52;18.00;67.60
31819;DHT22;18384;48.860;9.188;2023-06-04T05:16:18;17.90;68.30
31819;DHT22;18384;48.860;9.188;2023-06-04T05:18:46;17.90;68.40
31819;DHT22;18384;48.860;9.188;2023-06-04T05:21:12;17.90;67.90
31819;DHT22;18384;48.860;9.188;2023-06-04T05:23:39;17.70;68.80
31819;DHT22;18384;48.860;9.188;2023-06-04T05:26:05;17.60;67.40
31819;DHT22;18384;48.860;9.188;2023-06-04T05:28:32;17.60;67.80
31819;DHT22;18384;48.860;9.188;2023-06-04T05:30:59;17.60;68.40
31819;DHT22;18384;48.860;9.188;2023-06-04T05:33:26;17.60;68.70
31819;DHT22;18384;48.860;9.188;2023-06-04T05:35:53;17.60;69.10
31819;DHT22;18384;48.860;9.188;2023-06-04T05:38:26;17.70;69.90
31819;DHT22;18384;48.860;9.188;2023-06-04T05:40:56;17.80;69.20
31819;DHT22;18384;48.860;9.188;2023-06-04T05:43:22;18.00;69.50
31819;DHT22;18384;48.860;9.188;2023-06-04T05:45:48;18.10;68.10
31819;DHT22;18384;48.860;9.188;2023-06-04T05:48:14;18.20;67.50
31819;DHT22;18384;48.860;9.188;2023-06-04T05:50:40;18.40;65.80
31819;DHT22;18384;48.860;9.188;2023-06-04T05:53:07;18.60;65.20
31819;DHT22;18384;48.860;9.188;2023-06-04T05:55:33;18.70;64.20
31819;DHT22;18384;48.860;9.188;2023-06-04T05:57:59;19.00;65.50
31819;DHT22;18384;48.860;9.188;2023-06-04T06:00:25;18.90;65.80
31819;DHT22;18384;48.860;9.188;2023-06-04T06:02:52;18.90;66.80
31819;DHT22;18384;48.860;9.188;2023-06-04T06:05:19;18.90;66.20
31819;DHT22;18384;48.860;9.188;2023-06-04T06:07:46;19.20;65.10
31819;DHT22;18384;48.860;9.188;2023-06-04T06:10:13;19.20;65.60
31819;DHT22;18384;48.860;9.188;2023-06-04T06:12:39;19.40;63.60
31819;DHT22;18384;48.860;9.188;2023-06-04T06:15:06;19.70;64.60
31819;DHT22;18384;48.860;9.188;2023-06-04T06:17:33;19.70;64.20
31819;DHT22;18384;48.860;9.188;2023-06-04T06:20:01;19.80;65.40
31819;DHT22;18384;48.860;9.188;2023-06-04T06:22:31;19.70;64.20
31819;DHT22;18384;48.860;9.188;2023-06-04T06:24:57;19.80;64.30
31819;DHT22;18384;48.860;9.188;2023-06-04T06:27:24;19.80;63.30
31819;DHT22;18384;48.860;9.188;2023-06-04T06:29:50;19.90;63.10
31819;DHT22;18384;48.860;9.188;2023-06-04T06:32:16;19.90;63.90
31819;DHT22;18384;48.860;9.188;2023-06-04T06:34:43;20.00;64.20
31819;DHT22;18384;48.860;9.188;2023-06-04T06:37:09;20.10;63.40
31819;DHT22;18384;48.860;9.188;2023-06-04T06:39:35;20.00;63.60
31819;DHT22;18384;48.860;9.188;2023-06-04T06:42:01;20.00;62.10
31819;DHT22;18384;48.860;9.188;2023-06-04T06:44:27;20.10;62.80
31819;DHT22;18384;48.860;9.188;2023-06-04T06:46:53;20.00;61.50
31819;DHT22;18384;48.860;9.188;2023-06-04T06:49:19;20.10;64.30
31819;DHT22;18384;48.860;9.188;2023-06-04T06:51:45;20.10;64.30
31819;DHT22;18384;48.860;9.188;2023-06-04T06:54:14;20.10;64.90
31819;DHT22;18384;48.860;9.188;2023-06-04T06:56:41;20.00;64.60
31819;DHT22;18384;48.860;9.188;2023-06-04T06:59:07;19.90;63.00
31819;DHT22;18384;48.860;9.188;2023-06-04T07:01:34;19.80;63.40
31819;DHT22;18384;48.860;9.188;2023-06-04T07:04:00;19.80;65.00
31819;DHT22;18384;48.860;9.188;2023-06-04T07:06:26;19.80;66.00
31819;DHT22;18384;48.860;9.188;2023-06-04T07:08:52;19.90;64.70
31819;DHT22;18384;48.860;9.188;2023-06-04T07:11:19;19.80;64.30
31819;DHT22;18384;48.860;9.188;2023-06-04T07:13:45;19.80;65.10
31819;DHT22;18384;48.860;9.188;2023-06-04T07:16:11;19.80;66.00
31819;DHT22;18384;48.860;9.188;2023-06-04T07:18:38;19.90;64.80
31819;DHT22;18384;48.860;9.188;2023-06-04T07:21:04;19.80;64.90
31819;DHT22;18384;48.860;9.188;2023-06-04T07:23:30;19.80;65.10
31819;DHT22;18384;48.860;9.188;2023-06-04T07:25:57;19.80;64.80
31819;DHT22;18384;48.860;9.188;2023-06-04T07:28:23;19.90;65.00
31819;DHT22;18384;48.860;9.188;2023-06-04T07:30:49;20.00;65.30
31819;DHT22;18384;48.860;9.188;2023-06-04T07:33:15;20.10;66.20
31819;DHT22;18384;48.860;9.188;2023-06-04T07:35:41;20.20;65.10
31819;DHT22;18384;48.860;9.188;2023-06-04T07:38:07;20.30;66.60
31819;DHT22;18384;48.860;9.188;2023-06-04T07:40:34;20.40;65.80
31819;DHT22;18384;48.860;9.188;2023-06-04T07:43:00;20.60;66.20
31819;DHT22;18384;48.860;9.188;2023-06-04T07:45:26;20.70;64.30
31819;DHT22;18384;48.860;9.188;2023-06-04T07:47:54;20.90;64.60
31819;DHT22;18384;48.860;9.188;2023-06-04T07:50:20;21.00;64.00
31819;DHT22;18384;48.860;9.188;2023-06-04T07:52:46;21.10;65.00
31819;DHT22;18384;48.860;9.188;2023-06-04T07:55:12;21.20;64.90
31819;DHT22;18384;48.860;9.188;2023-06-04T07:57:38;21.20;64.20
31819;DHT22;18384;48.860;9.188;2023-06-04T08:00:05;21.30;65.20
31819;DHT22;18384;48.860;9.188;2023-06-04T08:02:33;21.30;64.20
31819;DHT22;18384;48.860;9.188;2023-06-04T08:05:00;21.40;65.50
31819;DHT22;18384;48.860;9.188;2023-06-04T08:07:29;21.50;64.40
31819;DHT22;18384;48.860;9.188;2023-06-04T08:09:55;21.50;64.20
31819;DHT22;18384;48.860;9.188;2023-06-04T08:12:22;21.50;64.90
31819;DHT22;18384;48.860;9.188;2023-06-04T08:14:48;21.50;64.50
31819;DHT22;18384;48.860;9.188;2023-06-04T08:17:16;21.50;65.60
31819;DHT22;18384;48.860;9.188;2023-06-04T08:19:42;21.50;64.30
31819;DHT22;18384;48.860;9.188;2023-06-04T08:22:08;21.50;64.30
31819;DHT22;18384;48.860;9.188;2023-06-04T08:24:36;21.40;66.00
31819;DHT22;18384;48.860;9.188;2023-06-04T08:27:02;21.40;65.50
31819;DHT22;18384;48.860;9.188;2023-06-04T08:29:28;21.30;64.60
31819;DHT22;18384;48.860;9.188;2023-06-04T08:31:57;21.40;65.40
31819;DHT22;18384;48.860;9.188;2023-06-04T08:34:23;21.40;66.00
31819;DHT22;18384;48.860;9.188;2023-06-04T08:36:49;21.40;66.20
31819;DHT22;18384;48.860;9.188;2023-06-04T08:39:15;21.40;64.50
31819;DHT22;18384;48.860;9.188;2023-06-04T08:41:46;21.40;65.00
31819;DHT22;18384;48.860;9.188;2023-06-04T08:44:16;21.30;66.50
31819;DHT22;18384;48.860;9.188;2023-06-04T08:46:44;21.30;66.50
31819;DHT22;18384;48.860;9.188;2023-06-04T08:49:18;21.50;65.50
31819;DHT22;18384;48.860;9.188;2023-06-04T08:51:50;21.40;65.50
31819;DHT22;18384;48.860;9.188;2023-06-04T08:54:16;21.40;64.80
31819;DHT22;18384;48.860;9.188;2023-06-04T08:56:42;21.30;66.00
31819;DHT22;18384;48.860;9.188;2023-06-04T08:59:10;21.30;65.90
31819;DHT22;18384;48.860;9.188;2023-06-04T09:01:36;21.40;65.80
31819;DHT22;18384;48.860;9.188;2023-06-04T09:04:06;21.40;65.70
31819;DHT22;18384;48.860;9.188;2023-06-04T09:06:33;21.40;66.60
31819;DHT22;18384;48.860;9.188;2023-06-04T09:09:02;21.30;65.60
31819;DHT22;18384;48.860;9.188;2023-06-04T09:11:35;21.40;66.20
31819;DHT22;18384;48.860;9.188;2023-06-04T09:14:07;21.40;66.00
31819;DHT22;18384;48.860;9.188;2023-06-04T09:16:47;21.50;65.60
31819;DHT22;18384;48.860;9.188;2023-06-04T09:19:15;21.40;65.40
31819;DHT22;18384;48.860;9.188;2023-06-04T09:21:59;21.60;65.40
31819;DHT22;18384;48.860;9.188;2023-06-04T09:24:45;21.60;64.80
31819;DHT22;18384;48.860;9.188;2023-06-04T09:27:16;21.70;64.80
31819;DHT22;18384;48.860;9.188;2023-06-04T09:32:27;21.80;63.80
31819;DHT22;18384;48.860;9.188;2023-06-04T09:35:14;21.90;63.70
31819;DHT22;18384;48.860;9.188;2023-06-04T09:37:43;21.90;65.00
31819;DHT22;18384;48.860;9.188;2023-06-04T09:40:19;22.00;64.00
31819;DHT22;18384;48.860;9.188;2023-06-04T09:42:47;22.00;64.10
31819;DHT22;18384;48.860;9.188;2023-06-04T09:45:35;22.10;63.60
31819;DHT22;18384;48.860;9.188;2023-06-04T09:48:03;22.10;64.10
31819;DHT22;18384;48.860;9.188;2023-06-04T09:50:31;22.30;65.60
31819;DHT22;18384;48.860;9.188;2023-06-04T09:53:18;22.30;63.10
31819;DHT22;18384;48.860;9.188;2023-06-04T09:56:02;22.40;63.30
31819;DHT22;18384;48.860;9.188;2023-06-04T09:58:29;22.30;62.40
31819;DHT22;18384;48.860;9.188;2023-06-04T10:00:58;22.40;63.70
31819;DHT22;18384;48.860;9.188;2023-06-04T10:03:30;22.40;63.10
31819;DHT22;18384;48.860;9.188;2023-06-04T10:06:03;22.50;63.50
31819;DHT22;18384;48.860;9.188;2023-06-04T10:08:30;22.60;63.40
31819;DHT22;18384;48.860;9.188;2023-06-04T10:11:02;22.70;61.80
31819;DHT22;18384;48.860;9.188;2023-06-04T10:13:48;22.70;62.50
31819;DHT22;18384;48.860;9.188;2023-06-04T10:16:19;22.70;61.40
31819;DHT22;18384;48.860;9.188;2023-06-04T10:18:47;22.70;61.20
31819;DHT22;18384;48.860;9.188;2023-06-04T10:21:14;22.70;62.00
31819;DHT22;18384;48.860;9.188;2023-06-04T10:23:41;22.70;61.50
31819;DHT22;18384;48.860;9.188;2023-06-04T10:26:14;22.70;61.30
31819;DHT22;18384;48.860;9.188;2023-06-04T10:28:44;22.70;61.20
31819;DHT22;18384;48.860;9.188;2023-06-04T10:31:10;22.70;61.40
31819;DHT22;18384;48.860;9.188;2023-06-04T10:33:37;22.90;61.20
31819;DHT22;18384;48.860;9.188;2023-06-04T10:36:21;22.80;61.20
31819;DHT22;18384;48.860;9.188;2023-06-04T10:38:49;22.90;61.90
31819;DHT22;18384;48.860;9.188;2023-06-04T10:41:20;22.90;61.40
31819;DHT22;18384;48.860;9.188;2023-06-04T10:43:51;23.00;60.40
31819;DHT22;18384;48.860;9.188;2023-06-04T10:46:25;23.00;59.70
31819;DHT22;18384;48.860;9.188;2023-06-04T10:48:52;23.10;60.30
31819;DHT22;18384;48.860;9.188;2023-06-04T10:51:34;23.20;60.90
31819;DHT22;18384;48.860;9.188;2023-06-04T10:54:03;23.30;60.60
31819;DHT22;18384;48.860;9.188;2023-06-04T10:56:34;23.30;59.30
31819;DHT22;18384;48.860;9.188;2023-06-04T10:59:14;23.40;58.50
31819;DHT22;18384;48.860;9.188;2023-06-04T11:01:40;23.30;58.20
31819;DHT22;18384;48.860;9.188;2023-06-04T11:04:06;23.20;57.90
31819;DHT22;18384;48.860;9.188;2023-06-04T11:06:32;23.20;58.10
31819;DHT22;18384;48.860;9.188;2023-06-04T11:09:04;23.10;58.80
31819;DHT22;18384;48.860;9.188;2023-06-04T11:11:32;23.20;59.10
31819;DHT22;18384;48.860;9.188;2023-06-04T11:14:08;23.20;58.90
31819;DHT22;18384;48.860;9.188;2023-06-04T11:16:41;23.30;58.80
31819;DHT22;18384;48.860;9.188;2023-06-04T11:19:07;23.20;59.30
31819;DHT22;18384;48.860;9.188;2023-06-04T11:21:36;23.20;58.60
31819;DHT22;18384;48.860;9.188;2023-06-04T11:24:04;23.30;58.30
31819;DHT22;18384;48.860;9.188;2023-06-04T11:26:36;23.30;57.70
31819;DHT22;18384;48.860;9.188;2023-06-04T11:29:07;23.30;58.00
31819;DHT22;18384;48.860;9.188;2023-06-04T11:31:48;23.20;58.10
31819;DHT22;18384;48.860;9.188;2023-06-04T11:34:28;23.30;58.60
31819;DHT22;18384;48.860;9.188;2023-06-04T11:36:55;23.30;59.20
31819;DHT22;18384;48.860;9.188;2023-06-04T11:39:22;23.30;58.40
31819;DHT22;18384;48.860;9.188;2023-06-04T11:41:50;23.40;59.00
31819;DHT22;18384;48.860;9.188;2023-06-04T11:44:19;23.50;58.70
31819;DHT22;18384;48.860;9.188;2023-06-04T11:46:45;23.50;57.30
31819;DHT22;18384;48.860;9.188;2023-06-04T11:49:18;23.00;57.70
31819;DHT22;18384;48.860;9.188;2023-06-04T11:51:52;23.50;56.80
31819;DHT22;18384;48.860;9.188;2023-06-04T11:54:21;23.40;56.80
31819;DHT22;18384;48.860;9.188;2023-06-04T11:56:51;23.40;56.70
31819;DHT22;18384;48.860;9.188;2023-06-04T11:59:19;23.40;58.20
31819;DHT22;18384;48.860;9.188;2023-06-04T12:01:46;23.40;57.90
31819;DHT22;18384;48.860;9.188;2023-06-04T12:04:15;23.50;58.40
31819;DHT22;18384;48.860;9.188;2023-06-04T12:06:54;23.70;58.00
31819;DHT22;18384;48.860;9.188;2023-06-04T12:09:24;23.70;58.80
31819;DHT22;18384;48.860;9.188;2023-06-04T12:11:59;23.70;57.20
31819;DHT22;18384;48.860;9.188;2023-06-04T12:14:26;23.60;56.90
31819;DHT22;18384;48.860;9.188;2023-06-04T12:17:06;23.60;57.60
31819;DHT22;18384;48.860;9.188;2023-06-04T12:19:33;23.60;58.40
31819;DHT22;18384;48.860;9.188;2023-06-04T12:22:09;23.70;56.60
31819;DHT22;18384;48.860;9.188;2023-06-04T12:24:50;23.60;57.10
31819;DHT22;18384;48.860;9.188;2023-06-04T12:27:22;23.70;58.30
31819;DHT22;18384;48.860;9.188;2023-06-04T12:30:04;23.80;57.70
31819;DHT22;18384;48.860;9.188;2023-06-04T12:32:36;23.80;56.90
31819;DHT22;18384;48.860;9.188;2023-06-04T12:35:03;23.80;57.30
31819;DHT22;18384;48.860;9.188;2023-06-04T12:37:29;23.90;55.90
31819;DHT22;18384;48.860;9.188;2023-06-04T12:39:55;23.80;56.70
31819;DHT22;18384;48.860;9.188;2023-06-04T12:42:21;23.80;57.00
31819;DHT22;18384;48.860;9.188;2023-06-04T12:44:48;23.90;58.20
31819;DHT22;18384;48.860;9.188;2023-06-04T12:47:14;23.90;55.90
31819;DHT22;18384;48.860;9.188;2023-06-04T12:49:42;23.80;57.80
31819;DHT22;18384;48.860;9.188;2023-06-04T12:52:09;23.80;56.00
31819;DHT22;18384;48.860;9.188;2023-06-04T12:54:35;23.80;56.10
31819;DHT22;18384;48.860;9.188;2023-06-04T12:57:01;23.70;55.50
31819;DHT22;18384;48.860;9.188;2023-06-04T12:59:27;23.70;56.10
31819;DHT22;18384;48.860;9.188;2023-06-04T13:01:54;23.70;56.90
31819;DHT22;18384;48.860;9.188;2023-06-04T13:04:21;23.80;54.80
31819;DHT22;18384;48.860;9.188;2023-06-04T13:06:49;23.80;55.20
31819;DHT22;18384;48.860;9.188;2023-06-04T13:09:17;23.80;54.80
31819;DHT22;18384;48.860;9.188;2023-06-04T13:11:46;23.80;55.20
31819;DHT22;18384;48.860;9.188;2023-06-04T13:14:12;23.80;55.10
31819;DHT22;18384;48.860;9.188;2023-06-04T13:16:38;23.80;56.20
31819;DHT22;18384;48.860;9.188;2023-06-04T13:19:05;23.80;55.50
31819;DHT22;18384;48.860;9.188;2023-06-04T13:21:31;23.90;55.10
31819;DHT22;18384;48.860;9.188;2023-06-04T13:23:57;23.90;56.10
31819;DHT22;18384;48.860;9.188;2023-06-04T13:26:23;23.90;55.00
31819;DHT22;18384;48.860;9.188;2023-06-04T13:28:49;24.00;54.70
31819;DHT22;18384;48.860;9.188;2023-06-04T13:31:15;24.00;54.90
31819;DHT22;18384;48.860;9.188;2023-06-04T13:33:41;24.20;54.20
31819;DHT22;18384;48.860;9.188;2023-06-04T13:36:07;24.20;54.60
31819;DHT22;18384;48.860;9.188;2023-06-04T13:38:33;24.20;54.40
31819;DHT22;18384;48.860;9.188;2023-06-04T13:40:59;24.20;54.00
31819;DHT22;18384;48.860;9.188;2023-06-04T13:43:25;24.20;53.20
31819;DHT22;18384;48.860;9.188;2023-06-04T13:45:52;24.20;52.70
31819;DHT22;18384;48.860;9.188;2023-06-04T13:48:18;24.20;53.50
31819;DHT22;18384;48.860;9.188;2023-06-04T13:50:44;24.20;53.80
31819;DHT22;18384;48.860;9.188;2023-06-04T13:53:10;24.30;53.70
31819;DHT22;18384;48.860;9.188;2023-06-04T13:55:38;24.30;53.20
31819;DHT22;18384;48.860;9.188;2023-06-04T13:58:05;24.30;53.20
31819;DHT22;18384;48.860;9.188;2023-06-04T14:00:31;24.40;52.70
31819;DHT22;18384;48.860;9.188;2023-06-04T14:02:58;24.30;52.00
31819;DHT22;18384;48.860;9.188;2023-06-04T14:05:24;24.40;52.40
31819;DHT22;18384;48.860;9.188;2023-06-04T14:07:53;24.40;52.60
31819;DHT22;18384;48.860;9.188;2023-06-04T14:10:19;24.50;52.70
31819;DHT22;18384;48.860;9.188;2023-06-04T14:12:45;24.40;52.50
31819;DHT22;18384;48.860;9.188;2023-06-04T14:15:11;24.40;51.80
31819;DHT22;18384;48.860;9.188;2023-06-04T14:17:38;24.40;53.00
31819;DHT22;18384;48.860;9.188;2023-06-04T14:20:05;24.30;52.60
31819;DHT22;18384;48.860;9.188;2023-06-04T14:22:38;24.30;52.10
31819;DHT22;18384;48.860;9.188;2023-06-04T14:25:06;24.30;52.40
31819;DHT22;18384;48.860;9.188;2023-06-04T14:27:34;24.30;51.90
31819;DHT22;18384;48.860;9.188;2023-06-04T14:30:01;24.30;51.90
31819;DHT22;18384;48.860;9.188;2023-06-04T14:32:28;24.40;52.90
31819;DHT22;18384;48.860;9.188;2023-06-04T14:34:54;24.40;52.50
31819;DHT22;18384;48.860;9.188;2023-06-04T14:37:21;24.40;53.00
31819;DHT22;18384;48.860;9.188;2023-06-04T14:39:47;24.30;52.50
31819;DHT22;18384;48.860;9.188;2023-06-04T14:42:14;24.20;52.40
31819;DHT22;18384;48.860;9.188;2023-06-04T14:44:40;24.20;52.70
31819;DHT22;18384;48.860;9.188;2023-06-04T14:47:06;24.20;53.00
31819;DHT22;18384;48.860;9.188;2023-06-04T14:49:32;24.30;52.40
31819;DHT22;18384;48.860;9.188;2023-06-04T14:51:58;24.30;53.80
31819;DHT22;18384;48.860;9.188;2023-06-04T14:54:25;24.30;52.60
31819;DHT22;18384;48.860;9.188;2023-06-04T14:56:51;24.40;52.20
31819;DHT22;18384;48.860;9.188;2023-06-04T14:59:18;24.40;52.40
31819;DHT22;18384;48.860;9.188;2023-06-04T15:01:43;24.40;53.10
31819;DHT22;18384;48.860;9.188;2023-06-04T15:04:12;24.50;51.30
31819;DHT22;18384;48.860;9.188;2023-06-04T15:06:38;24.50;51.30
31819;DHT22;18384;48.860;9.188;2023-06-04T15:09:04;24.60;51.60
31819;DHT22;18384;48.860;9.188;2023-06-04T15:11:30;24.60;51.50
31819;DHT22;18384;48.860;9.188;2023-06-04T15:13:56;24.60;51.50
31819;DHT22;18384;48.860;9.188;2023-06-04T15:16:24;24.60;51.20
31819;DHT22;18384;48.860;9.188;2023-06-04T15:18:50;24.60;50.00
31819;DHT22;18384;48.860;9.188;2023-06-04T15:21:16;24.60;49.00
31819;DHT22;18384;48.860;9.188;2023-06-04T15:23:43;24.60;49.60
31819;DHT22;18384;48.860;9.188;2023-06-04T15:26:11;24.60;49.30
31819;DHT22;18384;48.860;9.188;2023-06-04T15:28:37;24.50;49.60
31819;DHT22;18384;48.860;9.188;2023-06-04T15:31:03;24.50;49.90
31819;DHT22;18384;48.860;9.188;2023-06-04T15:33:29;24.50;51.00
31819;DHT22;18384;48.860;9.188;2023-06-04T15:35:55;24.50;50.70
31819;DHT22;18384;48.860;9.188;2023-06-04T15:38:21;24.40;51.50